sensor_id;sensor_type;location;lat;lon;timestamp;pressure;altitude;pressure_sealevel;temperature;humidity
56568;BME280;42456;49.956;20.004;2023-10-09T00:02:12;99226.30;;;3.41;82.45
56568;BME280;42456;49.956;20.004;2023-10-09T00:04:43;99218.98;;;3.37;82.50
56568;BME280;42456;49.956;20.004;2023-10-09T00:07:13;99223.16;;;3.33;82.14
56568;BME280;42456;49.956;20.004;2023-10-09T00:09:44;99224.42;;;3.28;82.28
56568;BME280;42456;49.956;20.004;2023-10-09T00:12:18;99219.35;;;3.25;82.43
56568;BME280;42456;49.956;20.004;2023-10-09T00:14:51;99219.91;;;3.22;82.36
56568;BME280;42456;49.956;20.004;2023-10-09T00:17:23;99209.79;;;3.18;82.33
56568;BME280;42456;49.956;20.004;2023-10-09T00:19:51;99206.06;;;3.15;82.37
56568;BME280;42456;49.956;20.004;2023-10-09T00:22:19;99209.91;;;3.11;82.09
56568;BME280;42456;49.956;20.004;2023-10-09T00:24:54;99210.05;;;3.07;82.46
56568;BME280;42456;49.956;20.004;2023-10-09T00:27:34;99214.98;;;3.02;82.50
56568;BME280;42456;49.956;20.004;2023-10-09T00:30:03;99214.84;;;2.97;82.78
56568;BME280;42456;49.956;20.004;2023-10-09T00:32:33;99217.30;;;2.92;82.70
56568;BME280;42456;49.956;20.004;2023-10-09T00:35:00;99218.08;;;2.88;82.70
56568;BME280;42456;49.956;20.004;2023-10-09T00:37:47;99210.86;;;2.83;82.72
56568;BME280;42456;49.956;20.004;2023-10-09T00:40:14;99199.67;;;2.79;82.55
56568;BME280;42456;49.956;20.004;2023-10-09T00:42:49;99188.34;;;2.76;82.59
56568;BME280;42456;49.956;20.004;2023-10-09T00:45:18;99186.77;;;2.73;82.26
56568;BME280;42456;49.956;20.004;2023-10-09T00:47:54;99188.66;;;2.70;82.70
56568;BME280;42456;49.956;20.004;2023-10-09T00:50:25;99189.66;;;2.67;82.75
56568;BME280;42456;49.956;20.004;2023-10-09T00:52:55;99183.05;;;2.65;82.80
56568;BME280;42456;49.956;20.004;2023-10-09T00:55:36;99180.01;;;2.61;82.70
56568;BME280;42456;49.956;20.004;2023-10-09T00:58:13;99177.23;;;2.57;82.36
56568;BME280;42456;49.956;20.004;2023-10-09T01:00:42;99168.23;;;2.54;82.21
56568;BME280;42456;49.956;20.004;2023-10-09T01:03:16;99165.81;;;2.50;82.57
56568;BME280;42456;49.956;20.004;2023-10-09T01:05:47;99155.95;;;2.46;82.06
56568;BME280;42456;49.956;20.004;2023-10-09T01:08:19;99144.14;;;2.42;82.40
56568;BME280;42456;49.956;20.004;2023-10-09T01:11:12;99131.89;;;2.38;82.46
56568;BME280;42456;49.956;20.004;2023-10-09T01:13:46;99133.52;;;2.33;82.59
56568;BME280;42456;49.956;20.004;2023-10-09T01:16:22;99129.19;;;2.30;82.67
56568;BME280;42456;49.956;20.004;2023-10-09T01:18:52;99127.00;;;2.27;83.04
56568;BME280;42456;49.956;20.004;2023-10-09T01:21:20;99121.44;;;2.24;82.84
56568;BME280;42456;49.956;20.004;2023-10-09T01:23:54;99112.98;;;2.21;82.93
56568;BME280;42456;49.956;20.004;2023-10-09T01:26:32;99108.71;;;2.17;82.62
56568;BME280;42456;49.956;20.004;2023-10-09T01:29:07;99110.58;;;2.13;82.91
56568;BME280;42456;49.956;20.004;2023-10-09T01:31:50;99115.56;;;2.11;83.18
56568;BME280;42456;49.956;20.004;2023-10-09T01:34:30;99113.25;;;2.08;83.27
56568;BME280;42456;49.956;20.004;2023-10-09T01:37:13;99099.53;;;2.03;83.57
56568;BME280;42456;49.956;20.004;2023-10-09T01:39:54;99090.67;;;1.97;82.98
56568;BME280;42456;49.956;20.004;2023-10-09T01:42:46;99101.30;;;1.94;83.48
56568;BME280;42456;49.956;20.004;2023-10-09T01:45:14;99117.90;;;1.92;83.70
56568;BME280;42456;49.956;20.004;2023-10-09T01:47:47;99113.91;;;1.91;83.78
56568;BME280;42456;49.956;20.004;2023-10-09T01:50:22;99104.08;;;1.89;83.12
56568;BME280;42456;49.956;20.004;2023-10-09T01:52:51;99104.27;;;1.87;83.58
56568;BME280;42456;49.956;20.004;2023-10-09T01:55:18;99107.86;;;1.85;83.30
56568;BME280;42456;49.956;20.004;2023-10-09T01:57:58;99105.15;;;1.84;83.23
56568;BME280;42456;49.956;20.004;2023-10-09T02:00:29;99107.15;;;1.82;83.81
56568;BME280;42456;49.956;20.004;2023-10-09T02:02:57;99110.64;;;1.82;83.61
56568;BME280;42456;49.956;20.004;2023-10-09T02:05:30;99113.45;;;1.82;83.95
56568;BME280;42456;49.956;20.004;2023-10-09T02:08:00;99111.06;;;1.81;83.67
56568;BME280;42456;49.956;20.004;2023-10-09T02:10:28;99110.05;;;1.81;84.08
56568;BME280;42456;49.956;20.004;2023-10-09T02:13:00;99102.20;;;1.81;84.16
56568;BME280;42456;49.956;20.004;2023-10-09T02:15:35;99102.58;;;1.82;84.20
56568;BME280;42456;49.956;20.004;2023-10-09T02:18:14;99098.63;;;1.85;84.84
56568;BME280;42456;49.956;20.004;2023-10-09T02:23:33;99097.25;;;1.91;85.49
56568;BME280;42456;49.956;20.004;2023-10-09T02:26:16;99096.27;;;1.93;85.50
56568;BME280;42456;49.956;20.004;2023-10-09T02:28:46;99084.58;;;1.98;85.91
56568;BME280;42456;49.956;20.004;2023-10-09T02:31:26;99081.55;;;2.04;85.84
56568;BME280;42456;49.956;20.004;2023-10-09T02:34:00;99080.77;;;2.07;85.95
56568;BME280;42456;49.956;20.004;2023-10-09T02:36:32;99075.13;;;2.10;86.11
56568;BME280;42456;49.956;20.004;2023-10-09T02:39:01;99058.05;;;2.13;86.06
56568;BME280;42456;49.956;20.004;2023-10-09T02:41:32;99050.48;;;2.15;86.07
56568;BME280;42456;49.956;20.004;2023-10-09T02:44:01;99051.12;;;2.16;86.39
56568;BME280;42456;49.956;20.004;2023-10-09T02:46:38;99059.84;;;2.18;86.18
56568;BME280;42456;49.956;20.004;2023-10-09T02:49:07;99057.83;;;2.19;86.29
56568;BME280;42456;49.956;20.004;2023-10-09T02:51:36;99054.93;;;2.22;86.55
56568;BME280;42456;49.956;20.004;2023-10-09T02:54:09;99055.70;;;2.24;86.35
56568;BME280;42456;49.956;20.004;2023-10-09T02:57:06;99058.84;;;2.27;86.74
56568;BME280;42456;49.956;20.004;2023-10-09T02:59:35;99054.94;;;2.30;86.81
56568;BME280;42456;49.956;20.004;2023-10-09T03:02:05;99054.16;;;2.34;86.94
56568;BME280;42456;49.956;20.004;2023-10-09T03:04:32;99057.35;;;2.36;86.55
56568;BME280;42456;49.956;20.004;2023-10-09T03:07:00;99051.02;;;2.39;86.92
56568;BME280;42456;49.956;20.004;2023-10-09T03:09:27;99047.36;;;2.42;86.84
56568;BME280;42456;49.956;20.004;2023-10-09T03:11:59;99046.67;;;2.44;86.93
56568;BME280;42456;49.956;20.004;2023-10-09T03:14:35;99045.64;;;2.47;86.69
56568;BME280;42456;49.956;20.004;2023-10-09T03:17:05;99040.92;;;2.50;86.71
56568;BME280;42456;49.956;20.004;2023-10-09T03:19:33;99028.42;;;2.54;86.73
56568;BME280;42456;49.956;20.004;2023-10-09T03:22:07;99034.10;;;2.57;86.76
56568;BME280;42456;49.956;20.004;2023-10-09T03:24:40;99044.64;;;2.61;87.04
56568;BME280;42456;49.956;20.004;2023-10-09T03:27:17;99045.29;;;2.66;87.06
56568;BME280;42456;49.956;20.004;2023-10-09T03:29:45;99040.58;;;2.69;87.16
56568;BME280;42456;49.956;20.004;2023-10-09T03:32:21;99038.10;;;2.73;86.63
56568;BME280;42456;49.956;20.004;2023-10-09T03:34:47;99043.63;;;2.74;86.90
56568;BME280;42456;49.956;20.004;2023-10-09T03:37:18;99046.26;;;2.77;86.63
56568;BME280;42456;49.956;20.004;2023-10-09T03:40:02;99051.20;;;2.79;86.68
56568;BME280;42456;49.956;20.004;2023-10-09T03:42:32;99049.67;;;2.81;86.85
56568;BME280;42456;49.956;20.004;2023-10-09T03:45:03;99046.96;;;2.83;86.65
56568;BME280;42456;49.956;20.004;2023-10-09T03:47:40;99036.56;;;2.85;86.68
56568;BME280;42456;49.956;20.004;2023-10-09T03:50:15;99027.60;;;2.88;86.65
56568;BME280;42456;49.956;20.004;2023-10-09T03:52:53;99018.84;;;2.92;86.79
56568;BME280;42456;49.956;20.004;2023-10-09T03:55:22;99014.38;;;2.94;86.51
56568;BME280;42456;49.956;20.004;2023-10-09T03:57:56;99007.44;;;2.97;86.54
56568;BME280;42456;49.956;20.004;2023-10-09T04:00:24;99004.94;;;2.99;86.65
56568;BME280;42456;49.956;20.004;2023-10-09T04:02:55;99008.88;;;3.01;86.94
56568;BME280;42456;49.956;20.004;2023-10-09T04:05:25;99006.70;;;3.03;87.21
56568;BME280;42456;49.956;20.004;2023-10-09T04:07:54;98991.94;;;3.04;87.50
56568;BME280;42456;49.956;20.004;2023-10-09T04:10:24;98969.67;;;3.06;87.23
56568;BME280;42456;49.956;20.004;2023-10-09T04:13:11;98956.34;;;3.07;87.17
56568;BME280;42456;49.956;20.004;2023-10-09T04:15:43;98955.12;;;3.08;87.13
56568;BME280;42456;49.956;20.004;2023-10-09T04:18:10;98959.48;;;3.10;87.21
56568;BME280;42456;49.956;20.004;2023-10-09T04:20:42;98965.21;;;3.12;87.63
56568;BME280;42456;49.956;20.004;2023-10-09T04:23:29;98965.22;;;3.14;87.63
56568;BME280;42456;49.956;20.004;2023-10-09T04:26:22;98968.73;;;3.16;87.37
56568;BME280;42456;49.956;20.004;2023-10-09T04:28:55;98966.86;;;3.18;87.63
56568;BME280;42456;49.956;20.004;2023-10-09T04:31:22;98965.34;;;3.19;87.64
56568;BME280;42456;49.956;20.004;2023-10-09T04:33:51;98961.19;;;3.22;88.06
56568;BME280;42456;49.956;20.004;2023-10-09T04:36:24;98962.25;;;3.23;87.87
56568;BME280;42456;49.956;20.004;2023-10-09T04:38:55;98960.02;;;3.23;87.93
56568;BME280;42456;49.956;20.004;2023-10-09T04:41:33;98957.10;;;3.25;87.75
56568;BME280;42456;49.956;20.004;2023-10-09T04:44:19;98947.79;;;3.26;87.66
56568;BME280;42456;49.956;20.004;2023-10-09T04:46:50;98945.14;;;3.28;87.44
56568;BME280;42456;49.956;20.004;2023-10-09T04:49:32;98937.98;;;3.30;87.56
56568;BME280;42456;49.956;20.004;2023-10-09T04:52:17;98929.20;;;3.32;87.43
56568;BME280;42456;49.956;20.004;2023-10-09T04:54:46;98918.92;;;3.33;87.58
56568;BME280;42456;49.956;20.004;2023-10-09T05:02:53;98920.48;;;3.39;87.58
56568;BME280;42456;49.956;20.004;2023-10-09T05:05:27;98929.56;;;3.41;87.47
56568;BME280;42456;49.956;20.004;2023-10-09T05:08:13;98920.90;;;3.43;87.81
56568;BME280;42456;49.956;20.004;2023-10-09T05:11:00;98917.33;;;3.45;87.95
56568;BME280;42456;49.956;20.004;2023-10-09T05:13:44;98919.10;;;3.47;87.70
56568;BME280;42456;49.956;20.004;2023-10-09T05:16:24;98912.39;;;3.49;87.69
56568;BME280;42456;49.956;20.004;2023-10-09T05:19:00;98910.05;;;3.51;87.75
56568;BME280;42456;49.956;20.004;2023-10-09T05:21:39;98912.08;;;3.53;88.03
56568;BME280;42456;49.956;20.004;2023-10-09T05:24:11;98905.30;;;3.56;88.32
56568;BME280;42456;49.956;20.004;2023-10-09T05:26:42;98908.66;;;3.59;88.22
56568;BME280;42456;49.956;20.004;2023-10-09T05:29:20;98901.67;;;3.61;88.09
56568;BME280;42456;49.956;20.004;2023-10-09T05:32:04;98890.41;;;3.64;87.93
56568;BME280;42456;49.956;20.004;2023-10-09T05:34:41;98887.01;;;3.66;88.07
56568;BME280;42456;49.956;20.004;2023-10-09T05:37:22;98883.39;;;3.69;87.94
56568;BME280;42456;49.956;20.004;2023-10-09T05:39:55;98883.48;;;3.71;88.19
56568;BME280;42456;49.956;20.004;2023-10-09T05:42:30;98879.59;;;3.73;88.22
56568;BME280;42456;49.956;20.004;2023-10-09T05:45:05;98876.13;;;3.75;88.27
56568;BME280;42456;49.956;20.004;2023-10-09T05:47:48;98871.27;;;3.78;88.36
56568;BME280;42456;49.956;20.004;2023-10-09T05:50:27;98865.27;;;3.79;88.20
56568;BME280;42456;49.956;20.004;2023-10-09T05:52:57;98856.85;;;3.82;87.96
56568;BME280;42456;49.956;20.004;2023-10-09T05:55:28;98852.32;;;3.84;88.60
56568;BME280;42456;49.956;20.004;2023-10-09T05:58:10;98838.52;;;3.87;88.65
56568;BME280;42456;49.956;20.004;2023-10-09T06:01:06;98839.27;;;3.90;88.57
56568;BME280;42456;49.956;20.004;2023-10-09T06:03:47;98837.33;;;3.94;88.71
56568;BME280;42456;49.956;20.004;2023-10-09T06:06:39;98817.46;;;3.99;88.59
56568;BME280;42456;49.956;20.004;2023-10-09T06:09:13;98813.13;;;4.04;88.76
56568;BME280;42456;49.956;20.004;2023-10-09T06:11:45;98807.30;;;4.09;89.21
56568;BME280;42456;49.956;20.004;2023-10-09T06:14:24;98816.86;;;4.14;88.85
56568;BME280;42456;49.956;20.004;2023-10-09T06:16:58;98813.65;;;4.19;88.70
56568;BME280;42456;49.956;20.004;2023-10-09T06:19:28;98815.27;;;4.24;88.30
56568;BME280;42456;49.956;20.004;2023-10-09T06:21:56;98815.52;;;4.29;88.32
56568;BME280;42456;49.956;20.004;2023-10-09T06:24:40;98817.71;;;4.36;88.15
56568;BME280;42456;49.956;20.004;2023-10-09T06:27:11;98815.48;;;4.42;87.76
56568;BME280;42456;49.956;20.004;2023-10-09T06:29:41;98822.64;;;4.48;87.90
56568;BME280;42456;49.956;20.004;2023-10-09T06:32:12;98825.75;;;4.54;87.60
56568;BME280;42456;49.956;20.004;2023-10-09T06:34:57;98839.09;;;4.61;87.27
56568;BME280;42456;49.956;20.004;2023-10-09T06:37:46;98852.25;;;4.67;87.19
56568;BME280;42456;49.956;20.004;2023-10-09T06:40:31;98865.81;;;4.73;86.82
56568;BME280;42456;49.956;20.004;2023-10-09T06:43:12;98875.58;;;4.78;86.66
56568;BME280;42456;49.956;20.004;2023-10-09T06:45:50;98884.39;;;4.82;86.80
56568;BME280;42456;49.956;20.004;2023-10-09T06:48:30;98895.81;;;4.88;87.21
56568;BME280;42456;49.956;20.004;2023-10-09T06:51:06;98896.38;;;4.92;86.52
56568;BME280;42456;49.956;20.004;2023-10-09T06:53:47;98895.23;;;4.96;86.23
56568;BME280;42456;49.956;20.004;2023-10-09T06:56:20;98891.95;;;4.99;86.86
56568;BME280;42456;49.956;20.004;2023-10-09T06:58:57;98882.45;;;5.02;86.63
56568;BME280;42456;49.956;20.004;2023-10-09T07:01:25;98878.92;;;5.04;86.97
56568;BME280;42456;49.956;20.004;2023-10-09T07:04:07;98874.70;;;5.05;86.58
56568;BME280;42456;49.956;20.004;2023-10-09T07:06:50;98875.00;;;5.07;86.09
56568;BME280;42456;49.956;20.004;2023-10-09T07:09:18;98876.25;;;5.10;86.50
56568;BME280;42456;49.956;20.004;2023-10-09T07:11:48;98876.77;;;5.13;86.13
56568;BME280;42456;49.956;20.004;2023-10-09T07:14:21;98877.33;;;5.15;86.19
56568;BME280;42456;49.956;20.004;2023-10-09T07:16:59;98882.74;;;5.18;85.54
56568;BME280;42456;49.956;20.004;2023-10-09T07:19:40;98884.00;;;5.21;85.92
56568;BME280;42456;49.956;20.004;2023-10-09T07:22:09;98885.15;;;5.24;85.64
56568;BME280;42456;49.956;20.004;2023-10-09T07:24:51;98881.66;;;5.26;85.44
56568;BME280;42456;49.956;20.004;2023-10-09T07:27:27;98884.05;;;5.29;85.17
56568;BME280;42456;49.956;20.004;2023-10-09T07:30:09;98888.45;;;5.32;85.12
56568;BME280;42456;49.956;20.004;2023-10-09T07:32:50;98880.27;;;5.34;85.05
56568;BME280;42456;49.956;20.004;2023-10-09T07:35:19;98874.48;;;5.36;85.08
56568;BME280;42456;49.956;20.004;2023-10-09T07:38:06;98869.94;;;5.38;85.83
56568;BME280;42456;49.956;20.004;2023-10-09T07:40:36;98869.96;;;5.41;85.72
56568;BME280;42456;49.956;20.004;2023-10-09T07:43:23;98867.05;;;5.44;85.58
56568;BME280;42456;49.956;20.004;2023-10-09T07:45:55;98869.58;;;5.47;86.45
56568;BME280;42456;49.956;20.004;2023-10-09T07:48:25;98863.48;;;5.49;85.87
56568;BME280;42456;49.956;20.004;2023-10-09T07:50:52;98867.52;;;5.51;86.33
56568;BME280;42456;49.956;20.004;2023-10-09T07:53:32;98865.84;;;5.54;86.89
56568;BME280;42456;49.956;20.004;2023-10-09T07:56:11;98866.83;;;5.56;86.16
56568;BME280;42456;49.956;20.004;2023-10-09T07:58:40;98852.76;;;5.60;86.21
56568;BME280;42456;49.956;20.004;2023-10-09T08:01:16;98860.02;;;5.65;86.51
56568;BME280;42456;49.956;20.004;2023-10-09T08:03:49;98857.05;;;5.70;87.14
56568;BME280;42456;49.956;20.004;2023-10-09T08:06:29;98861.22;;;5.77;87.00
56568;BME280;42456;49.956;20.004;2023-10-09T08:09:09;98859.49;;;5.82;86.98
56568;BME280;42456;49.956;20.004;2023-10-09T08:11:48;98863.45;;;5.87;86.98
56568;BME280;42456;49.956;20.004;2023-10-09T08:14:28;98871.73;;;5.92;86.92
56568;BME280;42456;49.956;20.004;2023-10-09T08:17:01;98876.48;;;5.97;87.01
56568;BME280;42456;49.956;20.004;2023-10-09T08:19:47;98868.41;;;6.02;87.34
56568;BME280;42456;49.956;20.004;2023-10-09T08:22:25;98861.83;;;6.09;86.80
56568;BME280;42456;49.956;20.004;2023-10-09T08:24:52;98848.62;;;6.14;87.29
56568;BME280;42456;49.956;20.004;2023-10-09T08:27:27;98837.84;;;6.19;87.23
56568;BME280;42456;49.956;20.004;2023-10-09T08:30:04;98830.27;;;6.21;87.11
56568;BME280;42456;49.956;20.004;2023-10-09T08:32:55;98828.13;;;6.25;87.10
56568;BME280;42456;49.956;20.004;2023-10-09T08:35:33;98825.80;;;6.27;86.98
56568;BME280;42456;49.956;20.004;2023-10-09T08:38:03;98823.37;;;6.30;87.06
56568;BME280;42456;49.956;20.004;2023-10-09T08:40:37;98822.19;;;6.35;87.17
56568;BME280;42456;49.956;20.004;2023-10-09T08:45:41;98813.70;;;6.49;87.15
56568;BME280;42456;49.956;20.004;2023-10-09T08:48:11;98809.92;;;6.58;87.26
56568;BME280;42456;49.956;20.004;2023-10-09T08:50:43;98793.27;;;6.67;87.27
56568;BME280;42456;49.956;20.004;2023-10-09T08:53:12;98800.44;;;6.78;87.14
56568;BME280;42456;49.956;20.004;2023-10-09T08:55:40;98799.21;;;6.88;87.09
56568;BME280;42456;49.956;20.004;2023-10-09T08:58:08;98782.95;;;6.98;86.86
56568;BME280;42456;49.956;20.004;2023-10-09T09:00:49;98775.59;;;7.10;86.38
56568;BME280;42456;49.956;20.004;2023-10-09T09:03:18;98766.95;;;7.17;85.70
56568;BME280;42456;49.956;20.004;2023-10-09T09:05:48;98766.95;;;7.26;85.20
56568;BME280;42456;49.956;20.004;2023-10-09T09:08:25;98751.73;;;7.38;85.29
56568;BME280;42456;49.956;20.004;2023-10-09T09:16:20;98737.55;;;7.59;83.85
56568;BME280;42456;49.956;20.004;2023-10-09T09:19:00;98735.91;;;7.62;83.97
56568;BME280;42456;49.956;20.004;2023-10-09T09:21:33;98734.17;;;7.61;83.23
56568;BME280;42456;49.956;20.004;2023-10-09T09:24:12;98723.21;;;7.61;83.22
56568;BME280;42456;49.956;20.004;2023-10-09T09:26:43;98720.93;;;7.62;83.42
56568;BME280;42456;49.956;20.004;2023-10-09T09:29:14;98712.48;;;7.62;83.27
56568;BME280;42456;49.956;20.004;2023-10-09T09:31:55;98709.14;;;7.62;83.14
56568;BME280;42456;49.956;20.004;2023-10-09T09:34:53;98702.81;;;7.66;82.64
56568;BME280;42456;49.956;20.004;2023-10-09T09:37:34;98704.35;;;7.64;82.62
56568;BME280;42456;49.956;20.004;2023-10-09T09:40:10;98713.12;;;7.62;82.15
56568;BME280;42456;49.956;20.004;2023-10-09T09:42:52;98705.87;;;7.61;81.89
56568;BME280;42456;49.956;20.004;2023-10-09T09:45:23;98701.11;;;7.60;81.90
56568;BME280;42456;49.956;20.004;2023-10-09T09:47:52;98698.92;;;7.57;81.50
56568;BME280;42456;49.956;20.004;2023-10-09T09:50:21;98701.50;;;7.54;81.41
56568;BME280;42456;49.956;20.004;2023-10-09T09:52:56;98702.76;;;7.51;81.39
56568;BME280;42456;49.956;20.004;2023-10-09T09:55:33;98706.85;;;7.46;81.47
56568;BME280;42456;49.956;20.004;2023-10-09T09:58:02;98695.35;;;7.43;81.19
56568;BME280;42456;49.956;20.004;2023-10-09T10:00:36;98696.52;;;7.39;81.14
56568;BME280;42456;49.956;20.004;2023-10-09T10:03:14;98698.35;;;7.38;81.27
56568;BME280;42456;49.956;20.004;2023-10-09T10:05:43;98695.96;;;7.37;81.37
56568;BME280;42456;49.956;20.004;2023-10-09T10:08:17;98682.38;;;7.39;81.06
56568;BME280;42456;49.956;20.004;2023-10-09T10:10:48;98687.02;;;7.39;81.06
56568;BME280;42456;49.956;20.004;2023-10-09T10:13:55;98672.70;;;7.41;81.39
56568;BME280;42456;49.956;20.004;2023-10-09T10:16:26;98674.33;;;7.43;81.36
56568;BME280;42456;49.956;20.004;2023-10-09T10:19:03;98674.59;;;7.46;81.65
56568;BME280;42456;49.956;20.004;2023-10-09T10:21:34;98674.20;;;7.49;81.65
56568;BME280;42456;49.956;20.004;2023-10-09T10:27:20;98675.13;;;7.52;81.90
56568;BME280;42456;49.956;20.004;2023-10-09T10:32:55;98672.88;;;7.51;81.93
56568;BME280;42456;49.956;20.004;2023-10-09T10:35:24;98676.61;;;7.49;81.89
56568;BME280;42456;49.956;20.004;2023-10-09T10:38:33;98668.27;;;7.46;81.97
56568;BME280;42456;49.956;20.004;2023-10-09T10:43:41;98647.13;;;7.46;82.42
56568;BME280;42456;49.956;20.004;2023-10-09T10:46:18;98639.34;;;7.50;82.67
56568;BME280;42456;49.956;20.004;2023-10-09T10:49:01;98639.30;;;7.55;82.69
56568;BME280;42456;49.956;20.004;2023-10-09T10:51:38;98635.09;;;7.58;82.57
56568;BME280;42456;49.956;20.004;2023-10-09T10:54:08;98638.52;;;7.60;82.44
56568;BME280;42456;49.956;20.004;2023-10-09T10:56:49;98637.48;;;7.60;82.63
56568;BME280;42456;49.956;20.004;2023-10-09T10:59:19;98629.85;;;7.58;82.96
56568;BME280;42456;49.956;20.004;2023-10-09T11:01:56;98622.54;;;7.62;83.32
56568;BME280;42456;49.956;20.004;2023-10-09T11:04:30;98620.52;;;7.64;83.22
56568;BME280;42456;49.956;20.004;2023-10-09T11:07:01;98617.92;;;7.62;83.08
56568;BME280;42456;49.956;20.004;2023-10-09T11:09:56;98608.80;;;7.62;83.16
56568;BME280;42456;49.956;20.004;2023-10-09T11:15:09;98581.33;;;7.66;83.05
56568;BME280;42456;49.956;20.004;2023-10-09T11:20:45;98576.55;;;7.74;83.12
56568;BME280;42456;49.956;20.004;2023-10-09T11:23:32;98568.23;;;7.77;83.14
56568;BME280;42456;49.956;20.004;2023-10-09T11:26:06;98558.88;;;7.76;82.99
56568;BME280;42456;49.956;20.004;2023-10-09T11:29:12;98549.21;;;7.75;82.41
56568;BME280;42456;49.956;20.004;2023-10-09T11:34:24;98544.52;;;7.58;82.40
56568;BME280;42456;49.956;20.004;2023-10-09T11:37:13;98536.11;;;7.54;82.76
56568;BME280;42456;49.956;20.004;2023-10-09T11:39:42;98542.66;;;7.51;82.62
56568;BME280;42456;49.956;20.004;2023-10-09T11:42:30;98535.27;;;7.46;82.69
56568;BME280;42456;49.956;20.004;2023-10-09T11:45:04;98532.08;;;7.40;82.94
56568;BME280;42456;49.956;20.004;2023-10-09T11:47:48;98525.34;;;7.40;83.33
56568;BME280;42456;49.956;20.004;2023-10-09T11:50:39;98529.01;;;7.42;83.66
56568;BME280;42456;49.956;20.004;2023-10-09T11:53:11;98527.77;;;7.42;83.72
56568;BME280;42456;49.956;20.004;2023-10-09T11:55:51;98529.80;;;7.42;83.92
56568;BME280;42456;49.956;20.004;2023-10-09T11:58:22;98528.63;;;7.42;84.01
56568;BME280;42456;49.956;20.004;2023-10-09T12:00:55;98528.95;;;7.39;83.48
56568;BME280;42456;49.956;20.004;2023-10-09T12:03:32;98522.58;;;7.36;83.72
56568;BME280;42456;49.956;20.004;2023-10-09T12:06:03;98519.50;;;7.37;84.01
56568;BME280;42456;49.956;20.004;2023-10-09T12:08:38;98510.91;;;7.35;84.00
56568;BME280;42456;49.956;20.004;2023-10-09T12:11:08;98499.98;;;7.33;83.81
56568;BME280;42456;49.956;20.004;2023-10-09T12:13:37;98494.90;;;7.30;83.64
56568;BME280;42456;49.956;20.004;2023-10-09T12:16:10;98485.11;;;7.26;83.57
56568;BME280;42456;49.956;20.004;2023-10-09T12:18:37;98480.26;;;7.21;83.67
56568;BME280;42456;49.956;20.004;2023-10-09T12:21:08;98477.63;;;7.19;83.96
56568;BME280;42456;49.956;20.004;2023-10-09T12:23:42;98485.19;;;7.17;84.27
56568;BME280;42456;49.956;20.004;2023-10-09T12:26:14;98486.48;;;7.14;84.22
56568;BME280;42456;49.956;20.004;2023-10-09T12:28:41;98499.46;;;7.13;84.22
56568;BME280;42456;49.956;20.004;2023-10-09T12:31:13;98504.19;;;7.09;84.38
56568;BME280;42456;49.956;20.004;2023-10-09T12:33:47;98492.80;;;7.10;84.68
56568;BME280;42456;49.956;20.004;2023-10-09T12:36:16;98487.98;;;7.08;84.59
56568;BME280;42456;49.956;20.004;2023-10-09T12:38:48;98489.59;;;7.07;84.77
56568;BME280;42456;49.956;20.004;2023-10-09T12:41:21;98489.30;;;7.06;84.77
56568;BME280;42456;49.956;20.004;2023-10-09T12:43:55;98490.23;;;7.05;85.24
56568;BME280;42456;49.956;20.004;2023-10-09T12:46:25;98485.33;;;7.06;85.28
56568;BME280;42456;49.956;20.004;2023-10-09T12:48:53;98481.30;;;7.07;85.46
56568;BME280;42456;49.956;20.004;2023-10-09T12:51:24;98477.15;;;7.08;85.32
56568;BME280;42456;49.956;20.004;2023-10-09T12:53:57;98477.09;;;7.09;85.36
56568;BME280;42456;49.956;20.004;2023-10-09T12:56:25;98482.30;;;7.08;85.06
56568;BME280;42456;49.956;20.004;2023-10-09T12:59:06;98474.97;;;7.08;85.31
56568;BME280;42456;49.956;20.004;2023-10-09T13:01:37;98470.85;;;7.08;85.29
56568;BME280;42456;49.956;20.004;2023-10-09T13:04:11;98464.23;;;7.10;85.62
56568;BME280;42456;49.956;20.004;2023-10-09T13:06:39;98460.94;;;7.11;85.53
56568;BME280;42456;49.956;20.004;2023-10-09T13:09:13;98469.35;;;7.13;85.65
56568;BME280;42456;49.956;20.004;2023-10-09T13:11:42;98466.06;;;7.14;85.60
56568;BME280;42456;49.956;20.004;2023-10-09T13:14:10;98470.89;;;7.16;85.69
56568;BME280;42456;49.956;20.004;2023-10-09T13:16:44;98474.45;;;7.17;85.66
56568;BME280;42456;49.956;20.004;2023-10-09T13:19:12;98480.23;;;7.17;85.58
56568;BME280;42456;49.956;20.004;2023-10-09T13:21:39;98485.28;;;7.16;85.51
56568;BME280;42456;49.956;20.004;2023-10-09T13:24:07;98483.91;;;7.15;85.67
56568;BME280;42456;49.956;20.004;2023-10-09T13:26:43;98480.06;;;7.14;85.83
56568;BME280;42456;49.956;20.004;2023-10-09T13:29:18;98469.48;;;7.15;85.85
56568;BME280;42456;49.956;20.004;2023-10-09T13:31:51;98465.65;;;7.15;86.09
56568;BME280;42456;49.956;20.004;2023-10-09T13:34:25;98468.50;;;7.17;86.14
56568;BME280;42456;49.956;20.004;2023-10-09T13:36:55;98463.55;;;7.18;86.23
56568;BME280;42456;49.956;20.004;2023-10-09T13:39:26;98457.40;;;7.19;86.12
56568;BME280;42456;49.956;20.004;2023-10-09T13:41:58;98450.50;;;7.19;86.10
56568;BME280;42456;49.956;20.004;2023-10-09T13:44:31;98452.51;;;7.18;86.16
56568;BME280;42456;49.956;20.004;2023-10-09T13:47:04;98453.66;;;7.16;86.23
56568;BME280;42456;49.956;20.004;2023-10-09T13:49:36;98450.35;;;7.16;86.42
56568;BME280;42456;49.956;20.004;2023-10-09T13:52:09;98439.86;;;7.16;86.60
56568;BME280;42456;49.956;20.004;2023-10-09T13:54:36;98431.45;;;7.17;86.53
56568;BME280;42456;49.956;20.004;2023-10-09T13:57:04;98432.55;;;7.17;86.77
56568;BME280;42456;49.956;20.004;2023-10-09T13:59:33;98434.80;;;7.18;86.77
56568;BME280;42456;49.956;20.004;2023-10-09T14:02:02;98435.80;;;7.18;86.67
56568;BME280;42456;49.956;20.004;2023-10-09T14:04:37;98436.52;;;7.17;86.75
56568;BME280;42456;49.956;20.004;2023-10-09T14:07:04;98434.85;;;7.18;86.86
56568;BME280;42456;49.956;20.004;2023-10-09T14:09:35;98441.98;;;7.17;86.92
56568;BME280;42456;49.956;20.004;2023-10-09T14:12:06;98443.35;;;7.15;86.78
56568;BME280;42456;49.956;20.004;2023-10-09T14:14:36;98442.42;;;7.14;86.76